TFM - Tactical Decision Aid (Experimental) INFO Settings

ID: Runway Winds: METAR Board: Map:

Kclt - Charlotte-Douglas Intl

Updated at: 1130 UTC 17 Sep 2014
Latest TAF at: 1127 UTC 17 Sep 2014

TAF Board

Time1052Z17/12Z17/13Z17/14Z17/15Z17/16Z17/17Z17/18Z17/19Z17/20Z17/21Z17/22Z17/23Z18/00Z
TypeOBSPRVLPRVLPRVLPRVLPRVLPRVLPRVLPRVLPRVLPRVLPRVLPRVLPRVL
VIS766>6>6>6>6>6>6>6>6>6>6>6
CIG8881616161660606060606060
CoverOVCBKNBKNBKNBKNBKNBKNBKNBKNBKNBKNBKNBKNBKN
FltCatIFRIFRIFRMVFRMVFRMVFRMVFRVFRVFRVFRVFRVFRVFRVFR
WX--BRBR----------------------
WDir36020203030303020202020202020
WSpd56666665555555
WGst----------------------------
TAF
KCLT 171127Z 1712/1812 02006KT 6SM BR BKN008
  FM171400 03006KT P6SM BKN016
  FM171800 02005KT P6SM BKN060
  FM180200 04006KT P6SM BKN020


METAR
KCLT 171052Z 36005KT 7SM OVC008 19/18 A2997 RMK AO2 SLP141 T01890178 $

TAF/METAR Board Legend

Hazard VFR MVFR IFR LIFR
Visibility (sm) >5 3≤X≤5 1≤X<3 <1
Ceiling (100 ft) >30 10≤X≤30 5≤X<10 <5
Wind Speed (kt) <10 10≤X<20 20≤X<30 ≥30
Wind Gust (kt) <15 15≤X<25 25≤X<35 ≥35
Weather No Wx Reported VCTS,-TS,-FZRA TS,FZRA +TS,+FZRA




Page loaded:  11:30 UTC  |   04:30 AM Pacific  |   05:30 AM Mountain  |   06:30 AM Central  |   07:30 AM Eastern

 

ADVISORIES

FORECASTS

FORECASTS

OBSERVATIONS

USER TOOLS

ABOUT US